sensor_id;sensor_type;location;lat;lon;timestamp;P1;durP1;ratioP1;P2;durP2;ratioP2
22549;SDS011;11441;57.164;-2.120;2023-10-09T00:02:08;0.50;;;0.50;;
22549;SDS011;11441;57.164;-2.120;2023-10-09T00:04:37;0.40;;;0.40;;
22549;SDS011;11441;57.164;-2.120;2023-10-09T00:07:05;0.35;;;0.35;;
22549;SDS011;11441;57.164;-2.120;2023-10-09T00:09:35;0.60;;;0.60;;
22549;SDS011;11441;57.164;-2.120;2023-10-09T00:12:17;0.52;;;0.52;;
22549;SDS011;11441;57.164;-2.120;2023-10-09T00:14:50;0.47;;;0.47;;
22549;SDS011;11441;57.164;-2.120;2023-10-09T00:17:22;1.95;;;0.52;;
22549;SDS011;11441;57.164;-2.120;2023-10-09T00:19:50;1.48;;;1.00;;
22549;SDS011;11441;57.164;-2.120;2023-10-09T00:22:26;1.58;;;1.10;;
22549;SDS011;11441;57.164;-2.120;2023-10-09T00:24:55;1.75;;;1.65;;
22549;SDS011;11441;57.164;-2.120;2023-10-09T00:27:39;1.30;;;1.30;;
22549;SDS011;11441;57.164;-2.120;2023-10-09T00:30:12;1.42;;;1.33;;
22549;SDS011;11441;57.164;-2.120;2023-10-09T00:32:45;2.92;;;1.48;;
22549;SDS011;11441;57.164;-2.120;2023-10-09T00:35:38;2.70;;;1.90;;
22549;SDS011;11441;57.164;-2.120;2023-10-09T00:38:08;2.17;;;1.98;;
22549;SDS011;11441;57.164;-2.120;2023-10-09T00:40:47;1.13;;;1.13;;
22549;SDS011;11441;57.164;-2.120;2023-10-09T00:43:29;1.20;;;1.20;;
22549;SDS011;11441;57.164;-2.120;2023-10-09T00:45:57;1.70;;;1.60;;
22549;SDS011;11441;57.164;-2.120;2023-10-09T00:48:45;1.60;;;1.50;;
22549;SDS011;11441;57.164;-2.120;2023-10-09T00:51:15;2.42;;;1.50;;
22549;SDS011;11441;57.164;-2.120;2023-10-09T00:53:44;2.55;;;1.58;;
22549;SDS011;11441;57.164;-2.120;2023-10-09T00:56:11;1.88;;;1.35;;
22549;SDS011;11441;57.164;-2.120;2023-10-09T00:58:46;1.10;;;1.10;;
22549;SDS011;11441;57.164;-2.120;2023-10-09T01:01:16;1.80;;;1.58;;
22549;SDS011;11441;57.164;-2.120;2023-10-09T01:03:43;1.05;;;1.05;;
22549;SDS011;11441;57.164;-2.120;2023-10-09T01:06:12;1.50;;;1.40;;
22549;SDS011;11441;57.164;-2.120;2023-10-09T01:08:39;1.30;;;1.25;;
22549;SDS011;11441;57.164;-2.120;2023-10-09T01:11:16;2.83;;;1.60;;
22549;SDS011;11441;57.164;-2.120;2023-10-09T01:13:50;1.08;;;1.00;;
22549;SDS011;11441;57.164;-2.120;2023-10-09T01:16:20;1.20;;;1.20;;
22549;SDS011;11441;57.164;-2.120;2023-10-09T01:18:54;2.38;;;1.77;;
22549;SDS011;11441;57.164;-2.120;2023-10-09T01:21:24;1.42;;;1.33;;
22549;SDS011;11441;57.164;-2.120;2023-10-09T01:23:53;1.30;;;1.20;;
22549;SDS011;11441;57.164;-2.120;2023-10-09T01:26:31;2.22;;;2.10;;
22549;SDS011;11441;57.164;-2.120;2023-10-09T01:29:21;1.70;;;1.60;;
22549;SDS011;11441;57.164;-2.120;2023-10-09T01:31:50;1.40;;;1.30;;
22549;SDS011;11441;57.164;-2.120;2023-10-09T01:34:24;1.52;;;1.42;;
22549;SDS011;11441;57.164;-2.120;2023-10-09T01:37:05;2.50;;;1.13;;
22549;SDS011;11441;57.164;-2.120;2023-10-09T01:39:39;0.82;;;0.82;;
22549;SDS011;11441;57.164;-2.120;2023-10-09T01:42:09;1.92;;;1.55;;
22549;SDS011;11441;57.164;-2.120;2023-10-09T01:44:37;1.08;;;1.00;;
22549;SDS011;11441;57.164;-2.120;2023-10-09T01:47:10;2.88;;;1.10;;
22549;SDS011;11441;57.164;-2.120;2023-10-09T01:49:45;1.38;;;0.88;;
22549;SDS011;11441;57.164;-2.120;2023-10-09T01:52:16;1.10;;;1.10;;
22549;SDS011;11441;57.164;-2.120;2023-10-09T01:54:43;1.13;;;1.05;;
22549;SDS011;11441;57.164;-2.120;2023-10-09T01:57:16;0.73;;;0.73;;
22549;SDS011;11441;57.164;-2.120;2023-10-09T01:59:51;0.65;;;0.65;;
22549;SDS011;11441;57.164;-2.120;2023-10-09T02:02:23;1.88;;;1.10;;
22549;SDS011;11441;57.164;-2.120;2023-10-09T02:04:56;0.95;;;0.82;;
22549;SDS011;11441;57.164;-2.120;2023-10-09T02:07:36;1.10;;;1.10;;
22549;SDS011;11441;57.164;-2.120;2023-10-09T02:10:20;1.45;;;1.30;;
22549;SDS011;11441;57.164;-2.120;2023-10-09T02:12:52;1.10;;;1.10;;
22549;SDS011;11441;57.164;-2.120;2023-10-09T02:15:26;1.35;;;0.90;;
22549;SDS011;11441;57.164;-2.120;2023-10-09T02:18:13;5.35;;;1.10;;
22549;SDS011;11441;57.164;-2.120;2023-10-09T02:20:48;0.45;;;0.45;;
22549;SDS011;11441;57.164;-2.120;2023-10-09T02:23:27;0.95;;;0.75;;
22549;SDS011;11441;57.164;-2.120;2023-10-09T02:26:17;1.52;;;1.42;;
22549;SDS011;11441;57.164;-2.120;2023-10-09T02:29:06;1.15;;;1.02;;
22549;SDS011;11441;57.164;-2.120;2023-10-09T02:31:40;1.90;;;0.80;;
22549;SDS011;11441;57.164;-2.120;2023-10-09T02:34:08;2.15;;;1.00;;
22549;SDS011;11441;57.164;-2.120;2023-10-09T02:36:36;1.35;;;1.25;;
22549;SDS011;11441;57.164;-2.120;2023-10-09T02:39:10;3.08;;;1.25;;
22549;SDS011;11441;57.164;-2.120;2023-10-09T02:41:51;1.50;;;1.17;;
22549;SDS011;11441;57.164;-2.120;2023-10-09T02:44:46;1.02;;;0.85;;
22549;SDS011;11441;57.164;-2.120;2023-10-09T02:47:20;0.80;;;0.80;;
22549;SDS011;11441;57.164;-2.120;2023-10-09T02:49:51;0.75;;;0.75;;
22549;SDS011;11441;57.164;-2.120;2023-10-09T02:52:18;1.45;;;1.30;;
22549;SDS011;11441;57.164;-2.120;2023-10-09T02:54:46;0.90;;;0.90;;
22549;SDS011;11441;57.164;-2.120;2023-10-09T02:57:23;1.08;;;0.70;;
22549;SDS011;11441;57.164;-2.120;2023-10-09T02:59:55;1.15;;;0.80;;
22549;SDS011;11441;57.164;-2.120;2023-10-09T03:02:21;1.00;;;1.00;;
22549;SDS011;11441;57.164;-2.120;2023-10-09T03:04:50;1.38;;;1.00;;
22549;SDS011;11441;57.164;-2.120;2023-10-09T03:07:22;0.50;;;0.50;;
22549;SDS011;11441;57.164;-2.120;2023-10-09T03:09:50;0.82;;;0.82;;
22549;SDS011;11441;57.164;-2.120;2023-10-09T03:12:17;0.80;;;0.80;;
22549;SDS011;11441;57.164;-2.120;2023-10-09T03:14:45;2.05;;;0.70;;
22549;SDS011;11441;57.164;-2.120;2023-10-09T03:17:12;1.60;;;1.10;;
22549;SDS011;11441;57.164;-2.120;2023-10-09T03:19:39;3.20;;;0.60;;
22549;SDS011;11441;57.164;-2.120;2023-10-09T03:22:07;0.75;;;0.75;;
22549;SDS011;11441;57.164;-2.120;2023-10-09T03:24:40;0.75;;;0.75;;
22549;SDS011;11441;57.164;-2.120;2023-10-09T03:27:18;3.20;;;0.95;;
22549;SDS011;11441;57.164;-2.120;2023-10-09T03:29:45;1.48;;;1.38;;
22549;SDS011;11441;57.164;-2.120;2023-10-09T03:32:20;2.15;;;1.33;;
22549;SDS011;11441;57.164;-2.120;2023-10-09T03:34:47;1.33;;;1.23;;
22549;SDS011;11441;57.164;-2.120;2023-10-09T03:37:17;2.22;;;1.63;;
22549;SDS011;11441;57.164;-2.120;2023-10-09T03:40:03;1.75;;;1.65;;
22549;SDS011;11441;57.164;-2.120;2023-10-09T03:42:33;4.43;;;2.00;;
22549;SDS011;11441;57.164;-2.120;2023-10-09T03:45:03;1.92;;;1.63;;
22549;SDS011;11441;57.164;-2.120;2023-10-09T03:47:40;1.73;;;1.63;;
22549;SDS011;11441;57.164;-2.120;2023-10-09T03:50:15;1.55;;;1.48;;
22549;SDS011;11441;57.164;-2.120;2023-10-09T03:52:53;1.35;;;1.30;;
22549;SDS011;11441;57.164;-2.120;2023-10-09T03:55:22;1.30;;;1.20;;
22549;SDS011;11441;57.164;-2.120;2023-10-09T03:57:55;2.15;;;1.63;;
22549;SDS011;11441;57.164;-2.120;2023-10-09T04:00:24;2.17;;;1.73;;
22549;SDS011;11441;57.164;-2.120;2023-10-09T04:02:55;2.85;;;2.08;;
22549;SDS011;11441;57.164;-2.120;2023-10-09T04:05:24;1.67;;;1.58;;
22549;SDS011;11441;57.164;-2.120;2023-10-09T04:07:53;1.75;;;1.65;;
22549;SDS011;11441;57.164;-2.120;2023-10-09T04:10:21;2.53;;;1.70;;
22549;SDS011;11441;57.164;-2.120;2023-10-09T04:13:10;1.05;;;1.05;;
22549;SDS011;11441;57.164;-2.120;2023-10-09T04:15:38;1.30;;;1.30;;
22549;SDS011;11441;57.164;-2.120;2023-10-09T04:18:09;1.00;;;1.00;;
22549;SDS011;11441;57.164;-2.120;2023-10-09T04:20:42;1.02;;;0.93;;
22549;SDS011;11441;57.164;-2.120;2023-10-09T04:23:27;0.75;;;0.75;;
22549;SDS011;11441;57.164;-2.120;2023-10-09T04:26:20;0.80;;;0.77;;
22549;SDS011;11441;57.164;-2.120;2023-10-09T04:28:47;0.55;;;0.52;;
22549;SDS011;11441;57.164;-2.120;2023-10-09T04:31:18;0.60;;;0.60;;
22549;SDS011;11441;57.164;-2.120;2023-10-09T04:33:47;0.60;;;0.60;;
22549;SDS011;11441;57.164;-2.120;2023-10-09T04:36:32;0.55;;;0.55;;
22549;SDS011;11441;57.164;-2.120;2023-10-09T04:39:12;0.50;;;0.50;;
22549;SDS011;11441;57.164;-2.120;2023-10-09T04:41:39;0.60;;;0.60;;
22549;SDS011;11441;57.164;-2.120;2023-10-09T04:44:09;0.52;;;0.52;;
22549;SDS011;11441;57.164;-2.120;2023-10-09T04:46:47;2.42;;;0.65;;
22549;SDS011;11441;57.164;-2.120;2023-10-09T04:49:37;1.17;;;0.60;;
22549;SDS011;11441;57.164;-2.120;2023-10-09T04:52:23;0.40;;;0.40;;
22549;SDS011;11441;57.164;-2.120;2023-10-09T04:54:59;1.08;;;0.63;;
22549;SDS011;11441;57.164;-2.120;2023-10-09T04:57:36;0.40;;;0.40;;
22549;SDS011;11441;57.164;-2.120;2023-10-09T05:00:10;0.32;;;0.30;;
22549;SDS011;11441;57.164;-2.120;2023-10-09T05:02:55;0.30;;;0.28;;
22549;SDS011;11441;57.164;-2.120;2023-10-09T05:05:25;0.17;;;0.15;;
22549;SDS011;11441;57.164;-2.120;2023-10-09T05:08:10;0.20;;;0.20;;
22549;SDS011;11441;57.164;-2.120;2023-10-09T05:10:59;0.30;;;0.20;;
22549;SDS011;11441;57.164;-2.120;2023-10-09T05:13:36;0.20;;;0.20;;
22549;SDS011;11441;57.164;-2.120;2023-10-09T05:18:46;0.10;;;0.10;;
22549;SDS011;11441;57.164;-2.120;2023-10-09T05:21:24;0.40;;;0.20;;
22549;SDS011;11441;57.164;-2.120;2023-10-09T05:23:59;0.20;;;0.20;;
22549;SDS011;11441;57.164;-2.120;2023-10-09T05:26:43;0.20;;;0.20;;
22549;SDS011;11441;57.164;-2.120;2023-10-09T05:29:15;0.10;;;0.10;;
22549;SDS011;11441;57.164;-2.120;2023-10-09T05:32:01;0.43;;;0.20;;
22549;SDS011;11441;57.164;-2.120;2023-10-09T05:37:30;0.10;;;0.10;;
22549;SDS011;11441;57.164;-2.120;2023-10-09T05:40:01;0.32;;;0.10;;
22549;SDS011;11441;57.164;-2.120;2023-10-09T05:42:43;0.10;;;0.10;;
22549;SDS011;11441;57.164;-2.120;2023-10-09T05:45:12;0.10;;;0.10;;
22549;SDS011;11441;57.164;-2.120;2023-10-09T05:48:01;0.10;;;0.10;;
22549;SDS011;11441;57.164;-2.120;2023-10-09T05:50:40;0.10;;;0.10;;
22549;SDS011;11441;57.164;-2.120;2023-10-09T05:53:26;3.63;;;0.10;;
22549;SDS011;11441;57.164;-2.120;2023-10-09T05:56:12;0.10;;;0.10;;
22549;SDS011;11441;57.164;-2.120;2023-10-09T05:58:58;0.22;;;0.10;;
22549;SDS011;11441;57.164;-2.120;2023-10-09T06:01:43;0.10;;;0.10;;
22549;SDS011;11441;57.164;-2.120;2023-10-09T06:04:25;0.88;;;0.10;;
22549;SDS011;11441;57.164;-2.120;2023-10-09T06:07:30;0.10;;;0.10;;
22549;SDS011;11441;57.164;-2.120;2023-10-09T06:10:16;0.10;;;0.10;;
22549;SDS011;11441;57.164;-2.120;2023-10-09T06:13:06;0.20;;;0.20;;
22549;SDS011;11441;57.164;-2.120;2023-10-09T06:15:37;2.22;;;0.80;;
22549;SDS011;11441;57.164;-2.120;2023-10-09T06:18:16;1.00;;;0.50;;
22549;SDS011;11441;57.164;-2.120;2023-10-09T06:20:52;0.50;;;0.50;;
22549;SDS011;11441;57.164;-2.120;2023-10-09T06:23:46;1.08;;;0.65;;
22549;SDS011;11441;57.164;-2.120;2023-10-09T06:26:31;0.70;;;0.60;;
22549;SDS011;11441;57.164;-2.120;2023-10-09T06:28:59;0.47;;;0.30;;
22549;SDS011;11441;57.164;-2.120;2023-10-09T06:31:46;0.20;;;0.20;;
22549;SDS011;11441;57.164;-2.120;2023-10-09T06:34:33;1.65;;;0.30;;
22549;SDS011;11441;57.164;-2.120;2023-10-09T06:37:02;0.38;;;0.17;;
22549;SDS011;11441;57.164;-2.120;2023-10-09T06:39:44;0.30;;;0.20;;
22549;SDS011;11441;57.164;-2.120;2023-10-09T06:42:18;0.20;;;0.20;;
22549;SDS011;11441;57.164;-2.120;2023-10-09T06:45:04;0.25;;;0.20;;
22549;SDS011;11441;57.164;-2.120;2023-10-09T06:47:35;0.63;;;0.17;;
22549;SDS011;11441;57.164;-2.120;2023-10-09T06:50:11;1.05;;;0.30;;
22549;SDS011;11441;57.164;-2.120;2023-10-09T06:52:48;1.65;;;0.10;;
22549;SDS011;11441;57.164;-2.120;2023-10-09T06:55:24;0.15;;;0.15;;
22549;SDS011;11441;57.164;-2.120;2023-10-09T06:58:03;0.13;;;0.10;;
22549;SDS011;11441;57.164;-2.120;2023-10-09T07:00:39;0.20;;;0.20;;
22549;SDS011;11441;57.164;-2.120;2023-10-09T07:03:39;0.30;;;0.10;;
22549;SDS011;11441;57.164;-2.120;2023-10-09T07:06:19;0.10;;;0.10;;
22549;SDS011;11441;57.164;-2.120;2023-10-09T07:08:54;0.25;;;0.10;;
22549;SDS011;11441;57.164;-2.120;2023-10-09T07:11:46;0.47;;;0.10;;
22549;SDS011;11441;57.164;-2.120;2023-10-09T07:14:15;0.10;;;0.10;;
22549;SDS011;11441;57.164;-2.120;2023-10-09T07:19:43;0.08;;;0.08;;
22549;SDS011;11441;57.164;-2.120;2023-10-09T07:22:11;0.00;;;0.00;;
22549;SDS011;11441;57.164;-2.120;2023-10-09T07:24:54;0.68;;;0.10;;
22549;SDS011;11441;57.164;-2.120;2023-10-09T07:27:23;2.00;;;0.10;;
22549;SDS011;11441;57.164;-2.120;2023-10-09T07:30:16;0.50;;;0.10;;
22549;SDS011;11441;57.164;-2.120;2023-10-09T07:33:00;0.10;;;0.10;;
22549;SDS011;11441;57.164;-2.120;2023-10-09T07:35:39;0.00;;;0.00;;
22549;SDS011;11441;57.164;-2.120;2023-10-09T07:38:36;0.10;;;0.10;;
22549;SDS011;11441;57.164;-2.120;2023-10-09T07:41:03;0.10;;;0.10;;
22549;SDS011;11441;57.164;-2.120;2023-10-09T07:43:33;1.23;;;0.15;;
22549;SDS011;11441;57.164;-2.120;2023-10-09T07:46:06;2.55;;;0.10;;
22549;SDS011;11441;57.164;-2.120;2023-10-09T07:48:52;0.03;;;0.03;;
22549;SDS011;11441;57.164;-2.120;2023-10-09T07:51:20;1.02;;;0.30;;
22549;SDS011;11441;57.164;-2.120;2023-10-09T07:53:57;0.00;;;0.00;;
22549;SDS011;11441;57.164;-2.120;2023-10-09T07:56:37;0.10;;;0.10;;
22549;SDS011;11441;57.164;-2.120;2023-10-09T07:59:08;1.55;;;0.35;;
22549;SDS011;11441;57.164;-2.120;2023-10-09T08:01:41;0.57;;;0.20;;
22549;SDS011;11441;57.164;-2.120;2023-10-09T08:04:26;0.10;;;0.10;;
22549;SDS011;11441;57.164;-2.120;2023-10-09T08:07:12;0.10;;;0.10;;
22549;SDS011;11441;57.164;-2.120;2023-10-09T08:10:20;0.10;;;0.10;;
22549;SDS011;11441;57.164;-2.120;2023-10-09T08:12:47;0.20;;;0.13;;
22549;SDS011;11441;57.164;-2.120;2023-10-09T08:15:24;0.20;;;0.20;;
22549;SDS011;11441;57.164;-2.120;2023-10-09T08:18:10;0.10;;;0.10;;
22549;SDS011;11441;57.164;-2.120;2023-10-09T08:20:40;0.43;;;0.20;;
22549;SDS011;11441;57.164;-2.120;2023-10-09T08:23:38;0.10;;;0.08;;
22549;SDS011;11441;57.164;-2.120;2023-10-09T08:26:18;0.55;;;0.40;;
22549;SDS011;11441;57.164;-2.120;2023-10-09T08:29:05;0.47;;;0.25;;
22549;SDS011;11441;57.164;-2.120;2023-10-09T08:31:46;0.30;;;0.10;;
22549;SDS011;11441;57.164;-2.120;2023-10-09T08:34:13;0.20;;;0.20;;
22549;SDS011;11441;57.164;-2.120;2023-10-09T08:37:20;0.32;;;0.10;;
22549;SDS011;11441;57.164;-2.120;2023-10-09T08:39:51;0.20;;;0.20;;
22549;SDS011;11441;57.164;-2.120;2023-10-09T08:42:18;0.28;;;0.10;;
22549;SDS011;11441;57.164;-2.120;2023-10-09T08:44:45;0.95;;;0.20;;
22549;SDS011;11441;57.164;-2.120;2023-10-09T08:47:15;0.40;;;0.40;;
22549;SDS011;11441;57.164;-2.120;2023-10-09T08:49:42;0.20;;;0.20;;
22549;SDS011;11441;57.164;-2.120;2023-10-09T08:52:09;0.20;;;0.20;;
22549;SDS011;11441;57.164;-2.120;2023-10-09T08:54:37;0.20;;;0.20;;
22549;SDS011;11441;57.164;-2.120;2023-10-09T08:57:04;0.20;;;0.13;;
22549;SDS011;11441;57.164;-2.120;2023-10-09T08:59:40;0.13;;;0.10;;
22549;SDS011;11441;57.164;-2.120;2023-10-09T09:02:12;2.63;;;0.20;;
22549;SDS011;11441;57.164;-2.120;2023-10-09T09:04:41;0.30;;;0.20;;
22549;SDS011;11441;57.164;-2.120;2023-10-09T09:07:24;0.57;;;0.20;;
22549;SDS011;11441;57.164;-2.120;2023-10-09T09:09:55;0.22;;;0.22;;
22549;SDS011;11441;57.164;-2.120;2023-10-09T09:12:23;0.35;;;0.20;;
22549;SDS011;11441;57.164;-2.120;2023-10-09T09:14:50;0.10;;;0.10;;
22549;SDS011;11441;57.164;-2.120;2023-10-09T09:17:25;0.45;;;0.08;;
22549;SDS011;11441;57.164;-2.120;2023-10-09T09:19:59;1.30;;;0.10;;
22549;SDS011;11441;57.164;-2.120;2023-10-09T09:22:52;0.47;;;0.10;;
22549;SDS011;11441;57.164;-2.120;2023-10-09T09:25:23;0.30;;;0.10;;
22549;SDS011;11441;57.164;-2.120;2023-10-09T09:27:51;0.10;;;0.10;;
22549;SDS011;11441;57.164;-2.120;2023-10-09T09:30:25;0.20;;;0.10;;
22549;SDS011;11441;57.164;-2.120;2023-10-09T09:36:10;1.42;;;0.30;;
22549;SDS011;11441;57.164;-2.120;2023-10-09T09:38:38;0.52;;;0.20;;
22549;SDS011;11441;57.164;-2.120;2023-10-09T09:41:15;0.70;;;0.20;;
22549;SDS011;11441;57.164;-2.120;2023-10-09T09:43:55;0.10;;;0.10;;
22549;SDS011;11441;57.164;-2.120;2023-10-09T09:46:23;1.45;;;0.10;;
22549;SDS011;11441;57.164;-2.120;2023-10-09T09:49:00;0.10;;;0.10;;
22549;SDS011;11441;57.164;-2.120;2023-10-09T09:51:34;0.57;;;0.10;;
22549;SDS011;11441;57.164;-2.120;2023-10-09T09:54:01;0.20;;;0.10;;
22549;SDS011;11441;57.164;-2.120;2023-10-09T09:56:29;0.20;;;0.10;;
22549;SDS011;11441;57.164;-2.120;2023-10-09T09:59:01;0.70;;;0.10;;
22549;SDS011;11441;57.164;-2.120;2023-10-09T10:01:33;0.10;;;0.10;;
22549;SDS011;11441;57.164;-2.120;2023-10-09T10:04:09;1.85;;;0.10;;
22549;SDS011;11441;57.164;-2.120;2023-10-09T10:06:40;0.30;;;0.10;;
22549;SDS011;11441;57.164;-2.120;2023-10-09T10:09:33;0.10;;;0.10;;
22549;SDS011;11441;57.164;-2.120;2023-10-09T10:12:06;0.80;;;0.20;;
22549;SDS011;11441;57.164;-2.120;2023-10-09T10:17:23;0.10;;;0.10;;
22549;SDS011;11441;57.164;-2.120;2023-10-09T10:22:26;0.08;;;0.08;;
22549;SDS011;11441;57.164;-2.120;2023-10-09T10:24:57;0.17;;;0.10;;
22549;SDS011;11441;57.164;-2.120;2023-10-09T10:27:29;0.05;;;0.05;;
22549;SDS011;11441;57.164;-2.120;2023-10-09T10:30:27;1.63;;;0.10;;
22549;SDS011;11441;57.164;-2.120;2023-10-09T10:33:00;0.25;;;0.20;;
22549;SDS011;11441;57.164;-2.120;2023-10-09T10:35:39;3.00;;;0.08;;
22549;SDS011;11441;57.164;-2.120;2023-10-09T10:41:10;1.25;;;0.10;;
22549;SDS011;11441;57.164;-2.120;2023-10-09T10:43:49;0.73;;;0.10;;
22549;SDS011;11441;57.164;-2.120;2023-10-09T10:46:19;0.10;;;0.10;;
22549;SDS011;11441;57.164;-2.120;2023-10-09T10:49:01;0.10;;;0.10;;
22549;SDS011;11441;57.164;-2.120;2023-10-09T10:51:42;1.00;;;0.20;;
22549;SDS011;11441;57.164;-2.120;2023-10-09T10:54:22;0.22;;;0.10;;
22549;SDS011;11441;57.164;-2.120;2023-10-09T10:56:59;0.55;;;0.10;;
22549;SDS011;11441;57.164;-2.120;2023-10-09T10:59:30;0.13;;;0.03;;
22549;SDS011;11441;57.164;-2.120;2023-10-09T11:02:09;0.20;;;0.10;;
22549;SDS011;11441;57.164;-2.120;2023-10-09T11:04:37;0.73;;;0.20;;
22549;SDS011;11441;57.164;-2.120;2023-10-09T11:07:12;0.90;;;0.10;;
22549;SDS011;11441;57.164;-2.120;2023-10-09T11:09:52;0.95;;;0.10;;
22549;SDS011;11441;57.164;-2.120;2023-10-09T11:12:29;1.17;;;0.10;;
22549;SDS011;11441;57.164;-2.120;2023-10-09T11:15:08;0.10;;;0.10;;
22549;SDS011;11441;57.164;-2.120;2023-10-09T11:17:59;0.10;;;0.00;;
22549;SDS011;11441;57.164;-2.120;2023-10-09T11:20:44;0.55;;;0.10;;
22549;SDS011;11441;57.164;-2.120;2023-10-09T11:23:44;0.10;;;0.10;;
22549;SDS011;11441;57.164;-2.120;2023-10-09T11:26:17;0.00;;;0.00;;
22549;SDS011;11441;57.164;-2.120;2023-10-09T11:29:10;0.28;;;0.10;;
22549;SDS011;11441;57.164;-2.120;2023-10-09T11:32:02;0.10;;;0.10;;
22549;SDS011;11441;57.164;-2.120;2023-10-09T11:34:32;0.20;;;0.10;;
22549;SDS011;11441;57.164;-2.120;2023-10-09T11:37:03;0.00;;;0.00;;
22549;SDS011;11441;57.164;-2.120;2023-10-09T11:39:42;0.20;;;0.20;;
22549;SDS011;11441;57.164;-2.120;2023-10-09T11:42:24;0.08;;;0.08;;
22549;SDS011;11441;57.164;-2.120;2023-10-09T11:45:20;0.28;;;0.05;;
22549;SDS011;11441;57.164;-2.120;2023-10-09T11:47:51;0.00;;;0.00;;
22549;SDS011;11441;57.164;-2.120;2023-10-09T11:53:10;1.92;;;0.20;;
22549;SDS011;11441;57.164;-2.120;2023-10-09T11:56:00;0.03;;;0.00;;
22549;SDS011;11441;57.164;-2.120;2023-10-09T11:58:27;0.40;;;0.25;;
22549;SDS011;11441;57.164;-2.120;2023-10-09T12:00:54;0.10;;;0.10;;
22549;SDS011;11441;57.164;-2.120;2023-10-09T12:03:32;0.10;;;0.10;;
22549;SDS011;11441;57.164;-2.120;2023-10-09T12:06:03;2.25;;;0.10;;
22549;SDS011;11441;57.164;-2.120;2023-10-09T12:08:38;0.38;;;0.15;;
22549;SDS011;11441;57.164;-2.120;2023-10-09T12:11:08;0.00;;;0.00;;
22549;SDS011;11441;57.164;-2.120;2023-10-09T12:13:40;0.47;;;0.10;;
22549;SDS011;11441;57.164;-2.120;2023-10-09T12:16:10;0.08;;;0.08;;
22549;SDS011;11441;57.164;-2.120;2023-10-09T12:18:37;0.47;;;0.10;;
22549;SDS011;11441;57.164;-2.120;2023-10-09T12:21:07;0.20;;;0.10;;
22549;SDS011;11441;57.164;-2.120;2023-10-09T12:23:34;0.10;;;0.10;;
22549;SDS011;11441;57.164;-2.120;2023-10-09T12:26:02;0.10;;;0.10;;
22549;SDS011;11441;57.164;-2.120;2023-10-09T12:28:30;0.10;;;0.10;;
22549;SDS011;11441;57.164;-2.120;2023-10-09T12:30:59;0.05;;;0.05;;
22549;SDS011;11441;57.164;-2.120;2023-10-09T12:33:29;1.35;;;0.00;;
22549;SDS011;11441;57.164;-2.120;2023-10-09T12:35:56;0.20;;;0.20;;
22549;SDS011;11441;57.164;-2.120;2023-10-09T12:38:27;0.10;;;0.10;;
22549;SDS011;11441;57.164;-2.120;2023-10-09T12:41:02;0.50;;;0.28;;
22549;SDS011;11441;57.164;-2.120;2023-10-09T12:43:43;0.10;;;0.10;;
22549;SDS011;11441;57.164;-2.120;2023-10-09T12:46:10;0.10;;;0.10;;
22549;SDS011;11441;57.164;-2.120;2023-10-09T12:48:43;0.40;;;0.40;;
22549;SDS011;11441;57.164;-2.120;2023-10-09T12:51:15;0.75;;;0.20;;
22549;SDS011;11441;57.164;-2.120;2023-10-09T12:53:43;3.42;;;0.40;;
22549;SDS011;11441;57.164;-2.120;2023-10-09T12:56:17;2.72;;;0.80;;
22549;SDS011;11441;57.164;-2.120;2023-10-09T12:58:44;1.10;;;0.30;;
22549;SDS011;11441;57.164;-2.120;2023-10-09T13:01:20;1.65;;;0.50;;
22549;SDS011;11441;57.164;-2.120;2023-10-09T13:03:47;1.17;;;0.50;;
22549;SDS011;11441;57.164;-2.120;2023-10-09T13:06:17;0.65;;;0.40;;
22549;SDS011;11441;57.164;-2.120;2023-10-09T13:08:51;0.38;;;0.30;;
22549;SDS011;11441;57.164;-2.120;2023-10-09T13:11:18;1.02;;;0.30;;
22549;SDS011;11441;57.164;-2.120;2023-10-09T13:13:46;3.20;;;0.50;;
22549;SDS011;11441;57.164;-2.120;2023-10-09T13:16:19;2.08;;;0.30;;
22549;SDS011;11441;57.164;-2.120;2023-10-09T13:18:50;0.85;;;0.30;;
22549;SDS011;11441;57.164;-2.120;2023-10-09T13:21:19;0.70;;;0.20;;
22549;SDS011;11441;57.164;-2.120;2023-10-09T13:23:48;1.30;;;0.30;;
22549;SDS011;11441;57.164;-2.120;2023-10-09T13:26:21;0.60;;;0.20;;
22549;SDS011;11441;57.164;-2.120;2023-10-09T13:29:00;0.30;;;0.30;;
22549;SDS011;11441;57.164;-2.120;2023-10-09T13:31:29;0.10;;;0.10;;
22549;SDS011;11441;57.164;-2.120;2023-10-09T13:34:01;1.85;;;0.30;;
22549;SDS011;11441;57.164;-2.120;2023-10-09T13:36:37;1.02;;;0.30;;
22549;SDS011;11441;57.164;-2.120;2023-10-09T13:39:05;0.43;;;0.28;;
22549;SDS011;11441;57.164;-2.120;2023-10-09T13:41:49;1.45;;;0.55;;
22549;SDS011;11441;57.164;-2.120;2023-10-09T13:44:25;1.00;;;0.20;;
22549;SDS011;11441;57.164;-2.120;2023-10-09T13:47:00;4.45;;;0.40;;
22549;SDS011;11441;57.164;-2.120;2023-10-09T13:49:32;0.32;;;0.15;;
22549;SDS011;11441;57.164;-2.120;2023-10-09T13:52:00;0.20;;;0.20;;
22549;SDS011;11441;57.164;-2.120;2023-10-09T13:54:29;0.30;;;0.30;;
22549;SDS011;11441;57.164;-2.120;2023-10-09T13:57:00;1.10;;;0.50;;
22549;SDS011;11441;57.164;-2.120;2023-10-09T13:59:30;0.47;;;0.40;;
22549;SDS011;11441;57.164;-2.120;2023-10-09T14:01:58;0.95;;;0.32;;
22549;SDS011;11441;57.164;-2.120;2023-10-09T14:04:26;1.95;;;0.55;;
22549;SDS011;11441;57.164;-2.120;2023-10-09T14:06:53;0.47;;;0.30;;
22549;SDS011;11441;57.164;-2.120;2023-10-09T14:09:27;0.40;;;0.40;;
22549;SDS011;11441;57.164;-2.120;2023-10-09T14:11:58;2.50;;;0.40;;
22549;SDS011;11441;57.164;-2.120;2023-10-09T14:14:33;0.52;;;0.35;;
22549;SDS011;11441;57.164;-2.120;2023-10-09T14:17:06;2.38;;;0.40;;
22549;SDS011;11441;57.164;-2.120;2023-10-09T14:19:43;1.10;;;0.40;;
22549;SDS011;11441;57.164;-2.120;2023-10-09T14:22:14;0.57;;;0.32;;
22549;SDS011;11441;57.164;-2.120;2023-10-09T14:24:47;0.52;;;0.30;;
22549;SDS011;11441;57.164;-2.120;2023-10-09T14:27:22;0.50;;;0.20;;
22549;SDS011;11441;57.164;-2.120;2023-10-09T14:29:56;0.45;;;0.20;;
22549;SDS011;11441;57.164;-2.120;2023-10-09T14:32:26;0.52;;;0.30;;
22549;SDS011;11441;57.164;-2.120;2023-10-09T14:35:01;1.20;;;0.40;;
22549;SDS011;11441;57.164;-2.120;2023-10-09T14:37:28;1.48;;;0.30;;
22549;SDS011;11441;57.164;-2.120;2023-10-09T14:39:56;0.75;;;0.30;;
22549;SDS011;11441;57.164;-2.120;2023-10-09T14:42:25;0.38;;;0.30;;
22549;SDS011;11441;57.164;-2.120;2023-10-09T14:44:54;0.85;;;0.25;;
22549;SDS011;11441;57.164;-2.120;2023-10-09T14:47:24;2.30;;;0.95;;
22549;SDS011;11441;57.164;-2.120;2023-10-09T14:49:52;0.85;;;0.30;;
22549;SDS011;11441;57.164;-2.120;2023-10-09T14:52:20;0.45;;;0.20;;
22549;SDS011;11441;57.164;-2.120;2023-10-09T14:54:47;1.10;;;0.20;;
22549;SDS011;11441;57.164;-2.120;2023-10-09T14:57:17;1.38;;;0.20;;
22549;SDS011;11441;57.164;-2.120;2023-10-09T14:59:44;1.55;;;0.20;;
22549;SDS011;11441;57.164;-2.120;2023-10-09T15:02:12;0.60;;;0.10;;
22549;SDS011;11441;57.164;-2.120;2023-10-09T15:04:39;0.28;;;0.20;;
22549;SDS011;11441;57.164;-2.120;2023-10-09T15:07:07;0.30;;;0.30;;
22549;SDS011;11441;57.164;-2.120;2023-10-09T15:09:34;3.60;;;0.30;;
22549;SDS011;11441;57.164;-2.120;2023-10-09T15:12:03;2.92;;;0.50;;
22549;SDS011;11441;57.164;-2.120;2023-10-09T15:14:34;2.58;;;0.38;;
22549;SDS011;11441;57.164;-2.120;2023-10-09T15:17:01;1.08;;;0.40;;
22549;SDS011;11441;57.164;-2.120;2023-10-09T15:19:29;1.38;;;0.30;;
22549;SDS011;11441;57.164;-2.120;2023-10-09T15:21:59;0.98;;;0.70;;
22549;SDS011;11441;57.164;-2.120;2023-10-09T15:24:27;0.63;;;0.32;;
22549;SDS011;11441;57.164;-2.120;2023-10-09T15:26:54;0.25;;;0.20;;
22549;SDS011;11441;57.164;-2.120;2023-10-09T15:29:25;0.80;;;0.60;;
22549;SDS011;11441;57.164;-2.120;2023-10-09T15:31:57;2.70;;;0.40;;
22549;SDS011;11441;57.164;-2.120;2023-10-09T15:34:31;0.70;;;0.60;;
22549;SDS011;11441;57.164;-2.120;2023-10-09T15:37:01;1.58;;;0.50;;
22549;SDS011;11441;57.164;-2.120;2023-10-09T15:39:36;0.80;;;0.50;;
22549;SDS011;11441;57.164;-2.120;2023-10-09T15:42:03;0.40;;;0.40;;